Thunder radar more information blitzortung!


Löydät sääaseman tiedot myös:

European Weather Network

Finland Weather Exchange

Weather Underground

AWEKAS



Weather Underground säähistoriasivu

Päivittäin yhteenveto Kesäkuu 25, 2017 Yksiköt:  Englantilaiset    Metriset   Molemmat
« Edellinen Päivä
Seuraava Päivä »
Päivittäin Viikoittain Kuukausittain Vuosittain Mukautettu
  Korkea: Matala: Keskiarvo:
Lämpötila: TemperatureC °F 9.7 °F 11.8 °F
Kastepiste: DewpointC °F 7.8 °F 9.6 °F
Kosteus: Humidity % 60 % 86 %
Tuulen nopeus: WindSpeedKMH mph 0.0 mph 3.7 mph
Tuulenpuuska: WindSpeedGustKMH mph - -
Tuuli:- - SSW
Ilmanpaine: PressurehPa in 988.7 in -
Sade: 4.6 in    
Historical Graphs
 
 
Taulukkotiedot Kesäkuu 25, 2017
Aika Lämpötila Kastepiste Ilmanpaine Tuuli Tuulen nopeus Tuulenpuuska Kosteus Sademäärä (tunneittain)
TemperatureC °F DewpointC °F PressurehPa in Calm     Humidity % HourlyPrecipMM in
00:00 9.8 °F 9.0 °F 993.8 in Calm   6.4 mph 95 % 0.8 in
00:15 9.8 °F 9.2 °F 993.5 in Calm   9.7 mph 96 % 1.0 in
00:30 9.9 °F 9.3 °F 993.1 in SSE 1.6 mph 8.0 mph 96 % 1.5 in
00:45 9.9 °F 9.3 °F 993.1 in Calm   9.7 mph 96 % 1.5 in
01:00 9.9 °F 9.3 °F 992.8 in Calm   8.0 mph 96 % 1.8 in
01:15 9.8 °F 9.2 °F 992.8 in SE 1.6 mph 11.3 mph 96 % 2.3 in
01:30 9.8 °F 9.2 °F 992.4 in Calm   8.0 mph 96 % 2.0 in
01:45 9.7 °F 9.1 °F 992.4 in Calm   8.0 mph 96 % 1.8 in
02:00 9.7 °F 9.1 °F 992.1 in SSE 1.6 mph 9.7 mph 96 % 1.3 in
02:15 9.8 °F 9.2 °F 992.1 in South 1.6 mph 8.0 mph 96 % 0.3 in
02:30 9.8 °F 9.2 °F 991.8 in SSE 1.6 mph 8.0 mph 96 % 0.5 in
02:45 9.8 °F 9.2 °F 991.8 in SSE 1.6 mph 8.0 mph 96 % 0.3 in
03:00 9.8 °F 9.2 °F 991.8 in SSE 1.6 mph 9.7 mph 96 % 0.3 in
03:15 9.9 °F 9.3 °F 991.4 in Calm   9.7 mph 96 % 0.3 in
03:30 9.9 °F 9.3 °F 991.4 in SSE 1.6 mph 14.5 mph 96 % 0.5 in
03:45 9.9 °F 9.3 °F 991.1 in Calm   8.0 mph 96 % 0.5 in
04:00 9.9 °F 9.3 °F 991.1 in SE 1.6 mph 8.0 mph 96 % 0.5 in
04:15 9.9 °F 9.4 °F 990.7 in SSE 1.6 mph 9.7 mph 97 % 0.5 in
04:30 9.9 °F 9.4 °F 990.7 in Calm   4.8 mph 97 % 0.5 in
04:45 9.9 °F 9.5 °F 990.4 in Calm   3.2 mph 97 % 0.5 in
05:00 9.9 °F 9.5 °F 990.4 in SSE 1.6 mph 11.3 mph 97 % 0.3 in
05:15 10.0 °F 9.5 °F 990.4 in SSE 1.6 mph 14.5 mph 97 % 0.3 in
05:30 10.1 °F 9.6 °F 990.4 in SE 1.6 mph 9.7 mph 97 % 0.0 in
05:45 10.1 °F 9.7 °F 990.1 in Calm   8.0 mph 97 % 0.0 in
06:00 10.2 °F 9.8 °F 990.1 in SSE 1.6 mph 12.9 mph 97 % 0.0 in
06:15 10.3 °F 9.8 °F 990.1 in SSE 1.6 mph 11.3 mph 97 % 0.0 in
06:30 10.3 °F 9.9 °F 990.1 in Calm   12.9 mph 97 % 0.0 in
06:45 10.4 °F 10.0 °F 989.7 in Calm   9.7 mph 97 % 0.0 in
07:00 10.6 °F 10.1 °F 989.7 in South 1.6 mph 8.0 mph 97 % 0.0 in
07:15 10.7 °F 10.3 °F 989.7 in Calm   8.0 mph 97 % 0.0 in
07:30 10.8 °F 10.4 °F 989.4 in SSE 3.2 mph 11.3 mph 97 % 0.0 in
07:45 11.2 °F 10.9 °F 989.4 in Calm   6.4 mph 98 % 0.0 in
08:00 11.6 °F 11.3 °F 989.4 in SSW 1.6 mph 9.7 mph 98 % 0.0 in
08:15 11.7 °F 11.2 °F 989.4 in SSW 1.6 mph 8.0 mph 97 % 0.0 in
08:30 11.7 °F 11.2 °F 989.4 in South 1.6 mph 9.7 mph 97 % 0.0 in
08:45 11.6 °F 11.0 °F 989.4 in SSW 4.8 mph 14.5 mph 96 % 0.0 in
09:00 11.5 °F 10.9 °F 989.4 in SSW 6.4 mph 16.1 mph 96 % 0.0 in
09:15 11.4 °F 10.8 °F 989.4 in SSW 6.4 mph 12.9 mph 96 % 0.0 in
09:30 11.4 °F 10.8 °F 989.4 in South 4.8 mph 19.3 mph 96 % 0.0 in
09:45 11.4 °F 10.8 °F 989.4 in SSW 6.4 mph 12.9 mph 96 % 0.0 in
10:00 11.5 °F 10.9 °F 989.7 in SSW 4.8 mph 14.5 mph 96 % 0.0 in
10:15 11.5 °F 10.9 °F 989.7 in SSW 8.0 mph 20.9 mph 96 % 0.0 in
10:30 11.6 °F 10.9 °F 989.7 in SSW 6.4 mph 14.5 mph 96 % 0.0 in
10:45 11.8 °F 11.0 °F 989.7 in South 6.4 mph 19.3 mph 95 % 0.0 in
11:00 11.8 °F 10.9 °F 989.7 in South 4.8 mph 14.5 mph 94 % 0.0 in
11:15 11.6 °F 10.6 °F 990.1 in SSW 8.0 mph 19.3 mph 94 % 0.0 in
11:30 11.4 °F 10.7 °F 989.7 in South 4.8 mph 12.9 mph 95 % 0.0 in
12:00 11.6 °F 10.5 °F 989.7 in SSW 4.8 mph 12.9 mph 93 % 0.0 in
12:15 11.6 °F 10.3 °F 990.1 in SSW 6.4 mph 20.9 mph 92 % 0.0 in
12:30 11.6 °F 10.1 °F 990.1 in South 4.8 mph 12.9 mph 91 % 0.0 in
12:45 11.7 °F 10.1 °F 990.1 in SSW 8.0 mph 20.9 mph 90 % 0.0 in
13:00 12.1 °F 10.1 °F 990.1 in SSW 8.0 mph 22.5 mph 88 % 0.0 in
13:15 12.2 °F 10.1 °F 990.1 in SSW 9.7 mph 27.4 mph 87 % 0.0 in
13:30 12.1 °F 9.8 °F 990.4 in SSW 11.3 mph 24.1 mph 86 % 0.0 in
13:45 12.5 °F 9.5 °F 990.4 in SSW 12.9 mph 22.5 mph 82 % 0.0 in
14:00 13.4 °F 10.1 °F 990.4 in SSW 9.7 mph 22.5 mph 81 % 0.3 in
14:15 13.6 °F 10.2 °F 990.4 in SSW 9.7 mph 25.7 mph 80 % 0.3 in
14:30 13.6 °F 10.2 °F 990.7 in SSW 6.4 mph 17.7 mph 80 % 0.3 in
14:45 13.8 °F 9.8 °F 990.7 in SSW 9.7 mph 24.1 mph 77 % 0.3 in
15:00 14.2 °F 9.2 °F 990.4 in SSW 12.9 mph 29.0 mph 72 % 0.0 in
15:15 14.6 °F 8.9 °F 990.4 in SSW 12.9 mph 35.4 mph 69 % 0.0 in
15:30 15.1 °F 9.2 °F 990.4 in SW 8.0 mph 20.9 mph 68 % 0.0 in
15:45 15.3 °F 8.7 °F 990.4 in SSW 12.9 mph 24.1 mph 65 % 0.0 in
16:00 15.3 °F 9.0 °F 990.4 in SW 6.4 mph 20.9 mph 66 % 0.0 in
16:15 15.4 °F 8.1 °F 990.4 in SSW 8.0 mph 17.7 mph 62 % 0.0 in
16:30 15.7 °F 8.2 °F 990.4 in SW 8.0 mph 25.7 mph 61 % 0.0 in
16:45 15.8 °F 8.5 °F 990.1 in SSW 8.0 mph 19.3 mph 62 % 0.0 in
17:00 16.1 °F 8.6 °F 990.1 in SSW 6.4 mph 17.7 mph 61 % 0.0 in
17:15 15.8 °F 8.3 °F 990.1 in SSW 6.4 mph 19.3 mph 61 % 0.0 in
17:30 15.3 °F 7.8 °F 989.7 in SSW 9.7 mph 25.7 mph 61 % 0.0 in
17:45 16.3 °F 8.8 °F 989.7 in SSW 6.4 mph 16.1 mph 61 % 0.0 in
18:00 15.7 °F 8.2 °F 989.7 in SSW 6.4 mph 19.3 mph 61 % 0.0 in
18:15 15.7 °F 8.2 °F 989.7 in SSW 4.8 mph 14.5 mph 61 % 0.0 in
18:30 15.8 °F 8.3 °F 989.4 in SSW 4.8 mph 14.5 mph 61 % 0.0 in
18:45 16.3 °F 8.5 °F 989.4 in SSW 6.4 mph 16.1 mph 60 % 0.0 in
19:00 15.7 °F 8.5 °F 989.4 in SSW 3.2 mph 12.9 mph 62 % 0.0 in
19:15 15.3 °F 8.7 °F 989.4 in SSW 4.8 mph 14.5 mph 65 % 0.0 in
19:30 14.8 °F 9.0 °F 989.4 in SSW 3.2 mph 14.5 mph 68 % 0.0 in
19:45 13.7 °F 9.6 °F 989.4 in SW 3.2 mph 12.9 mph 76 % 0.3 in
20:00 12.1 °F 9.4 °F 989.4 in Calm   4.8 mph 84 % 0.5 in
20:15 11.5 °F 9.9 °F 989.1 in Calm     90 % 0.5 in
20:30 11.7 °F 10.1 °F 989.1 in Calm   4.8 mph 90 % 0.5 in
20:45 11.9 °F 10.2 °F 989.1 in Calm   3.2 mph 89 % 0.3 in
21:00 11.9 °F 10.1 °F 989.1 in Calm     89 % 0.0 in
21:15 11.8 °F 10.0 °F 989.1 in Calm     89 % 0.0 in
21:30 11.7 °F 10.2 °F 989.1 in Calm     91 % 0.0 in
21:45 11.6 °F 10.2 °F 989.1 in Calm     91 % 0.0 in
22:00 11.7 °F 10.4 °F 989.1 in Calm     92 % 0.0 in
22:15 11.7 °F 10.5 °F 989.1 in Calm   3.2 mph 92 % 0.0 in
22:30 11.6 °F 10.0 °F 989.1 in South 1.6 mph 9.7 mph 90 % 0.0 in
22:45 11.4 °F 9.5 °F 989.1 in Calm   8.0 mph 88 % 0.0 in
23:00 11.2 °F 9.1 °F 989.1 in SSW 1.6 mph 6.4 mph 87 % 0.0 in
23:15 10.9 °F 8.9 °F 988.7 in Calm   6.4 mph 87 % 0.0 in
23:30 10.7 °F 8.8 °F 988.7 in Calm   3.2 mph 88 % 0.0 in
23:45 10.3 °F 8.5 °F 988.7 in Calm   4.8 mph 89 % 0.0 in
Esan sääasema
Terveisin Weather Underground - 2.75 mb

Alkuperäinen skripti  Jim McMurry - jmcmurry@mwt.net Sovitettu myös templatelle  Wim van der Kuil - Leuven-Template.eu

Laitteet joita käytämme:

Sääasema
Davis VP2

Sääasemaohjelma
Cumulus

Sääaseman tietokone
Asus EeePC

Palveluntarjoaja
Suncomet

Davis VP2

Cumulus

Asus EeePC

Suncomet